createdAt,value
2023-03-24T00:00:29.202Z,4.93
2023-03-24T00:05:30.999Z,6.45
2023-03-24T00:10:34.388Z,3.03
2023-03-24T00:15:36.211Z,3.97
2023-03-24T00:20:37.573Z,6.88
2023-03-24T00:25:39.989Z,4.05
2023-03-24T00:30:41.680Z,4.93
2023-03-24T00:35:44.731Z,3.28
2023-03-24T00:40:48.432Z,3.00
2023-03-24T00:45:49.794Z,3.78
2023-03-24T00:50:52.027Z,4.57
2023-03-24T00:55:53.767Z,4.35
2023-03-24T01:00:57.897Z,2.13
2023-03-24T01:06:04.018Z,6.28
2023-03-24T01:11:06.556Z,5.90
2023-03-24T01:16:08.764Z,2.63
2023-03-24T01:21:11.966Z,3.50
2023-03-24T01:26:13.310Z,5.75
2023-03-24T01:31:14.717Z,6.38
2023-03-24T01:36:16.216Z,4.15
2023-03-24T01:41:17.643Z,3.83
2023-03-24T01:46:20.634Z,6.88
2023-03-24T01:51:37.304Z,5.78
2023-03-24T01:56:47.458Z,4.32
2023-03-24T02:01:49.542Z,5.20
2023-03-24T02:06:51.188Z,3.38
2023-03-24T02:11:52.828Z,4.80
2023-03-24T02:17:15.106Z,4.45
2023-03-24T02:22:53.514Z,6.20
2023-03-24T02:28:17.770Z,4.88
2023-03-24T02:33:58.009Z,3.63
2023-03-24T02:39:21.540Z,3.80
2023-03-24T02:44:56.738Z,3.47
2023-03-24T02:50:18.358Z,3.00
2023-03-24T02:55:31.405Z,3.63
2023-03-24T03:00:39.919Z,6.13
2023-03-24T03:05:59.282Z,7.00
2023-03-24T03:11:03.659Z,5.97
2023-03-24T03:16:15.944Z,6.38
2023-03-24T03:21:20.895Z,9.60
2023-03-24T03:26:26.683Z,6.80
2023-03-24T03:31:44.913Z,5.38
2023-03-24T03:36:53.759Z,9.48
2023-03-24T03:41:56.670Z,9.02
2023-03-24T03:46:58.543Z,4.60
2023-03-24T03:51:59.949Z,5.00
2023-03-24T03:57:01.739Z,10.35
2023-03-24T04:02:34.709Z,8.30
2023-03-24T04:07:41.499Z,5.43
2023-03-24T04:13:00.551Z,6.88
2023-03-24T04:18:17.047Z,5.30
2023-03-24T04:23:44.522Z,8.48
2023-03-24T04:29:17.795Z,7.00
2023-03-24T04:34:29.294Z,6.22
2023-03-24T04:39:38.728Z,6.13
2023-03-24T04:44:41.638Z,7.97
2023-03-24T04:49:43.086Z,6.88
2023-03-24T04:54:44.400Z,8.43
2023-03-24T04:59:46.103Z,8.63
2023-03-24T05:04:47.445Z,8.05
2023-03-24T05:09:48.771Z,7.35
2023-03-24T05:14:50.222Z,8.95
2023-03-24T05:19:51.738Z,7.30
2023-03-24T05:24:53.074Z,9.23
2023-03-24T05:29:54.433Z,8.85
2023-03-24T05:34:55.884Z,7.45
2023-03-24T05:46:12.894Z,6.93
2023-03-24T05:51:14.257Z,7.03
2023-03-24T05:56:15.706Z,10.93
2023-03-24T06:01:18.265Z,7.57
2023-03-24T06:06:19.746Z,7.13
2023-03-24T06:11:21.226Z,8.15
2023-03-24T06:16:23.907Z,7.35
2023-03-24T06:21:32.475Z,5.18
2023-03-24T06:26:35.429Z,6.03
2023-03-24T06:31:37.320Z,5.13
2023-03-24T06:36:38.790Z,12.23
2023-03-24T06:41:40.552Z,3.45
2023-03-24T06:46:42.035Z,4.22
2023-03-24T06:51:43.602Z,3.70
2023-03-24T06:56:45.069Z,3.63
2023-03-24T07:01:49.408Z,1.42
2023-03-24T07:07:08.590Z,3.00
2023-03-24T07:12:14.413Z,1.98
2023-03-24T07:17:16.258Z,2.28
2023-03-24T07:22:17.697Z,4.22
2023-03-24T07:27:19.030Z,3.67
2023-03-24T07:32:20.416Z,1.85
2023-03-24T07:37:21.766Z,3.63
2023-03-24T07:42:23.133Z,1.45
2023-03-24T07:47:24.582Z,4.57
2023-03-24T07:52:25.950Z,2.67
2023-03-24T07:57:27.380Z,3.33
2023-03-24T08:02:28.833Z,4.47
2023-03-24T08:07:30.164Z,4.72
2023-03-24T08:12:31.846Z,6.75
2023-03-24T08:17:33.792Z,4.97
2023-03-24T08:22:37.677Z,5.03
2023-03-24T08:27:40.115Z,9.48
2023-03-24T08:32:56.374Z,4.47
2023-03-24T08:38:01.662Z,4.95
2023-03-24T08:43:08.500Z,3.75
2023-03-24T08:48:10.492Z,4.22
2023-03-24T08:53:12.383Z,3.55
2023-03-24T08:58:20.910Z,4.95
2023-03-24T09:03:22.818Z,8.45
2023-03-24T09:08:25.256Z,5.93
2023-03-24T09:13:26.580Z,5.30
2023-03-24T09:18:29.041Z,3.25
2023-03-24T09:23:31.537Z,3.45
2023-03-24T09:28:33.095Z,1.60
2023-03-24T09:33:34.931Z,2.60
2023-03-24T09:38:36.390Z,1.40
2023-03-24T09:43:44.446Z,0.98
2023-03-24T09:48:55.037Z,0.52
2023-03-24T09:54:18.092Z,2.00
2023-03-24T09:59:40.001Z,2.42
2023-03-24T10:04:41.637Z,2.22
2023-03-24T10:09:46.268Z,0.75
2023-03-24T10:14:57.777Z,4.22
2023-03-24T10:20:25.681Z,2.67
2023-03-24T10:30:48.328Z,3.22
2023-03-24T10:36:02.576Z,2.85
2023-03-24T10:41:04.383Z,1.60
2023-03-24T10:46:06.392Z,0.73
2023-03-24T10:51:17.986Z,1.55
2023-03-24T10:56:41.723Z,6.22
2023-03-24T11:01:43.206Z,2.47
2023-03-24T11:07:02.634Z,0.60
2023-03-24T11:12:04.357Z,1.25
2023-03-24T11:17:16.812Z,4.35
2023-03-24T11:22:18.560Z,2.88
2023-03-24T11:27:20.267Z,2.53
2023-03-24T11:32:27.827Z,1.13
2023-03-24T11:37:34.708Z,1.85
2023-03-24T11:42:57.691Z,3.38
2023-03-24T11:48:01.139Z,1.73
2023-03-24T11:53:15.972Z,2.45
2023-03-24T11:58:36.904Z,0.70
2023-03-24T12:04:20.754Z,4.13
2023-03-24T12:09:53.954Z,3.40
2023-03-24T12:15:28.152Z,1.38
2023-03-24T12:20:44.928Z,3.83
2023-03-24T12:26:05.100Z,2.05
2023-03-24T12:31:38.821Z,2.95
2023-03-24T12:36:54.281Z,3.53
2023-03-24T12:42:15.740Z,1.55
2023-03-24T12:47:36.094Z,1.85
2023-03-24T12:53:08.222Z,1.52
2023-03-24T12:58:20.733Z,2.80
2023-03-24T13:03:30.350Z,2.63
2023-03-24T13:08:32.930Z,3.78
2023-03-24T13:13:40.828Z,0.95
2023-03-24T13:19:00.390Z,1.65
2023-03-24T13:24:15.383Z,3.40
2023-03-24T13:29:48.377Z,1.38
2023-03-24T13:35:00.246Z,2.45
2023-03-24T13:40:07.812Z,1.70
2023-03-24T13:45:27.089Z,0.82
2023-03-24T13:50:32.276Z,2.58
2023-03-24T13:55:38.226Z,1.70
2023-03-24T14:01:06.349Z,3.03
2023-03-24T14:06:09.687Z,2.17
2023-03-24T14:11:38.444Z,5.28
2023-03-24T14:16:44.305Z,2.28
2023-03-24T14:21:52.550Z,2.83
2023-03-24T14:26:54.096Z,6.57
2023-03-24T14:32:17.296Z,3.50
2023-03-24T14:37:22.175Z,3.42
2023-03-24T14:42:32.362Z,1.38
2023-03-24T14:47:38.001Z,2.85
2023-03-24T14:52:51.070Z,2.00
2023-03-24T14:57:56.314Z,2.65
2023-03-24T15:03:41.276Z,2.47
2023-03-24T15:08:54.291Z,3.17
2023-03-24T15:13:57.481Z,2.22
2023-03-24T15:19:02.501Z,1.05
2023-03-24T15:24:27.089Z,1.73
2023-03-24T15:29:28.453Z,0.98
2023-03-24T15:34:47.246Z,2.17
2023-03-24T15:39:59.164Z,5.13
2023-03-24T15:45:21.050Z,1.73
2023-03-24T15:50:35.492Z,1.40
2023-03-24T15:55:37.932Z,3.22
2023-03-24T16:00:42.362Z,3.03
2023-03-24T16:05:48.680Z,3.00
2023-03-24T16:11:07.069Z,4.60
2023-03-24T16:16:24.180Z,1.23
2023-03-24T16:21:28.261Z,1.92
2023-03-24T16:26:32.360Z,1.15
2023-03-24T16:31:35.520Z,4.07
2023-03-24T16:36:37.104Z,1.27
2023-03-24T16:41:38.505Z,1.75
2023-03-24T16:46:41.081Z,2.72
2023-03-24T16:51:43.204Z,4.00
2023-03-24T16:56:44.854Z,3.45
2023-03-24T17:01:47.710Z,1.48
2023-03-24T17:06:55.124Z,2.03
2023-03-24T17:11:58.485Z,1.85
2023-03-24T17:17:02.791Z,1.70
2023-03-24T17:22:06.840Z,3.10
2023-03-24T17:27:26.103Z,2.10
2023-03-24T17:32:32.261Z,2.85
2023-03-24T17:37:33.661Z,1.90
2023-03-24T17:42:35.456Z,11.27
2023-03-24T17:47:36.847Z,3.88
2023-03-24T17:52:48.168Z,3.22
2023-03-24T17:57:49.590Z,6.20
2023-03-24T18:02:51.125Z,3.58
2023-03-24T18:07:52.678Z,3.25
2023-03-24T18:12:54.565Z,3.03
2023-03-24T18:17:56.162Z,2.22
2023-03-24T18:22:57.998Z,2.72
2023-03-24T18:27:59.453Z,2.67
2023-03-24T18:33:01.214Z,6.63
2023-03-24T18:38:02.711Z,1.77
2023-03-24T18:43:04.267Z,3.08
2023-03-24T18:48:06.314Z,3.25
2023-03-24T18:53:07.754Z,1.90
2023-03-24T18:58:15.139Z,1.63
2023-03-24T19:03:17.291Z,4.63
2023-03-24T19:08:22.504Z,3.15
2023-03-24T19:13:23.993Z,2.10
2023-03-24T19:18:25.868Z,6.40
2023-03-24T19:23:28.318Z,3.63
2023-03-24T19:28:32.108Z,4.35
2023-03-24T19:33:33.495Z,2.35
2023-03-24T19:38:36.030Z,2.60
2023-03-24T19:43:37.844Z,4.25
2023-03-24T19:48:39.264Z,2.22
2023-03-24T19:53:40.873Z,2.50
2023-03-24T19:58:42.231Z,5.03
2023-03-24T20:03:43.846Z,2.13
2023-03-24T20:08:45.440Z,3.15
2023-03-24T20:13:46.768Z,3.35
2023-03-24T20:18:48.238Z,2.25
2023-03-24T20:23:50.376Z,1.23
2023-03-24T20:28:51.917Z,1.65
2023-03-24T20:33:53.282Z,0.88
2023-03-24T20:38:59.088Z,2.65
2023-03-24T20:44:00.723Z,2.38
2023-03-24T20:49:02.145Z,0.85
2023-03-24T20:54:05.573Z,2.95
2023-03-24T20:59:07.306Z,1.95
2023-03-24T21:04:10.003Z,4.47
2023-03-24T21:09:11.642Z,2.95
2023-03-24T21:14:12.973Z,3.67
2023-03-24T21:19:14.543Z,2.25
2023-03-24T21:24:17.113Z,7.60
2023-03-24T21:29:18.628Z,2.88
2023-03-24T21:34:19.984Z,1.90
2023-03-24T21:39:21.699Z,2.25
2023-03-24T21:44:23.275Z,1.70
2023-03-24T21:49:24.649Z,3.50
2023-03-24T21:54:26.750Z,3.28
2023-03-24T21:59:28.567Z,2.70
2023-03-24T22:04:29.886Z,2.80
2023-03-24T22:09:31.196Z,1.60
2023-03-24T22:14:32.509Z,1.98
2023-03-24T22:19:33.975Z,2.78
2023-03-24T22:24:35.497Z,2.65
2023-03-24T22:29:37.246Z,0.98
2023-03-24T22:34:38.569Z,3.63
2023-03-24T22:39:39.890Z,0.38
2023-03-24T22:44:41.905Z,1.52
2023-03-24T22:49:43.298Z,1.42
2023-03-24T22:54:44.680Z,0.40
2023-03-24T22:59:46.091Z,0.20
2023-03-24T23:04:48.248Z,2.25
2023-03-24T23:09:49.907Z,0.13
2023-03-24T23:14:54.196Z,1.17
2023-03-24T23:19:55.719Z,0.98
2023-03-24T23:25:01.936Z,0.63
2023-03-24T23:30:06.983Z,1.77
2023-03-24T23:35:09.256Z,0.30
2023-03-24T23:40:12.867Z,0.43
2023-03-24T23:45:19.194Z,1.55
2023-03-24T23:50:21.069Z,0.35
2023-03-24T23:55:22.691Z,0.22
